Wilson Lisbon — 5BNU3 — position and weather

sailwx.info

Track history (hours):
 
Tides and Currents Weather Stations Pressure Air Temp Water Temp Dewpoint Dewpoint Depression Visibility Wind Speed Wind Dir Waves Ship Positions

Wilson Lisbon

Last reported at 2015-Mar-03 19:15 UTC. Time now 2015-Mar-04 12:51 UTC.
Position N 39°37' W 000°10'.

Length 90 m; draft 5.7 m.

Type: Ship. MMSI: 212376000.

Date/timePositionNaut miles runAvg speedWind from/ knotsBaromVisibWave heightAir tempDewpointWater temp
2015-Mar-03 19:15N 39°37' W 000°10'0 0.0
2015-Mar-03 18:08N 39°37' W 000°10'0 0.0
2015-Mar-03 15:12N 39°37' W 000°10'0 0.0
2015-Mar-03 13:33N 39°37' W 000°10'86 2.0
2015-Mar-01 19:17N 38°11' E 000°02'5 6.6
2015-Mar-01 18:33N 38°08' W 000°01'7 6.7
2015-Mar-01 17:33N 38°02' W 000°06'7 6.8
2015-Mar-01 16:33N 37°56' W 000°11'7 6.5
2015-Mar-01 15:33N 37°51' W 000°16'7 6.6
2015-Mar-01 14:32N 37°45' W 000°20'6 6.5
2015-Mar-01 13:33N 37°40' W 000°25'6 6.3
2015-Mar-01 12:33N 37°35' W 000°29'6 5.9
2015-Mar-01 11:33N 37°31' W 000°34'6 5.9
2015-Mar-01 10:33N 37°27' W 000°40'6 6.3
2015-Mar-01 09:33N 37°23' W 000°46'7 6.8
2015-Mar-01 08:32N 37°18' W 000°53'7 7.1
2015-Mar-01 07:33N 37°13' W 000°59'8 7.6
2015-Mar-01 06:33N 37°08' W 001°06'210 5.8
2015-Feb-27 18:33N 35°59' W 005°13'10 9.8
2015-Feb-27 17:33N 35°57' W 005°25'12 9.3
2015-Feb-27 16:19N 35°54' W 005°39'  
Track history (hours):
 
Tides and Currents Weather Stations Pressure Air Temp Water Temp Dewpoint Dewpoint Depression Visibility Wind Speed Wind Dir Waves Ship Positions

Wilson Lisbon

Last reported at 2015-Mar-03 19:15 UTC. Time now 2015-Mar-04 12:51 UTC.
Position N 39°37' W 000°10'.

Length 90 m; draft 5.7 m.

Type: Ship. MMSI: 212376000.

Date/timePositionNaut miles runAvg speedWind from/ knotsBaromVisibWave heightAir tempDewpointWater temp
2015-Mar-03 19:15N 39°37' W 000°10'0 0.0
2015-Mar-03 18:08N 39°37' W 000°10'0 0.0
2015-Mar-03 15:12N 39°37' W 000°10'0 0.0
2015-Mar-03 13:33N 39°37' W 000°10'86 2.0
2015-Mar-01 19:17N 38°11' E 000°02'5 6.6
2015-Mar-01 18:33N 38°08' W 000°01'7 6.7
2015-Mar-01 17:33N 38°02' W 000°06'7 6.8
2015-Mar-01 16:33N 37°56' W 000°11'7 6.5
2015-Mar-01 15:33N 37°51' W 000°16'7 6.6
2015-Mar-01 14:32N 37°45' W 000°20'6 6.5
2015-Mar-01 13:33N 37°40' W 000°25'6 6.3
2015-Mar-01 12:33N 37°35' W 000°29'6 5.9
2015-Mar-01 11:33N 37°31' W 000°34'6 5.9
2015-Mar-01 10:33N 37°27' W 000°40'6 6.3
2015-Mar-01 09:33N 37°23' W 000°46'7 6.8
2015-Mar-01 08:32N 37°18' W 000°53'7 7.1
2015-Mar-01 07:33N 37°13' W 000°59'8 7.6
2015-Mar-01 06:33N 37°08' W 001°06'210 5.8
2015-Feb-27 18:33N 35°59' W 005°13'10 9.8
2015-Feb-27 17:33N 35°57' W 005°25'12 9.3
2015-Feb-27 16:19N 35°54' W 005°39'  

Dump ship's entire track history